sensor_id;sensor_type;location;lat;lon;timestamp;pressure;altitude;pressure_sealevel;temperature;humidity
34374;BME280;20637;55.770;37.592;2022-09-27T00:00:30;99341.09;;;8.32;85.46
34374;BME280;20637;55.770;37.592;2022-09-27T00:02:56;99337.84;;;8.28;85.21
34374;BME280;20637;55.770;37.592;2022-09-27T00:05:22;99341.41;;;8.29;85.50
34374;BME280;20637;55.770;37.592;2022-09-27T00:07:47;99346.63;;;8.30;85.67
34374;BME280;20637;55.770;37.592;2022-09-27T00:10:13;99348.50;;;8.30;85.50
34374;BME280;20637;55.770;37.592;2022-09-27T00:12:39;99348.31;;;8.31;85.29
34374;BME280;20637;55.770;37.592;2022-09-27T00:15:06;99350.34;;;8.29;85.70
34374;BME280;20637;55.770;37.592;2022-09-27T00:17:32;99350.34;;;8.29;85.71
34374;BME280;20637;55.770;37.592;2022-09-27T00:19:59;99347.75;;;8.28;86.09
34374;BME280;20637;55.770;37.592;2022-09-27T00:22:25;99347.94;;;8.26;85.67
34374;BME280;20637;55.770;37.592;2022-09-27T00:24:51;99345.25;;;8.26;85.54
34374;BME280;20637;55.770;37.592;2022-09-27T00:27:17;99339.69;;;8.28;85.77
34374;BME280;20637;55.770;37.592;2022-09-27T00:29:44;99347.66;;;8.29;86.02
34374;BME280;20637;55.770;37.592;2022-09-27T00:32:11;99353.69;;;8.31;86.33
34374;BME280;20637;55.770;37.592;2022-09-27T00:34:36;99350.34;;;8.29;86.34
34374;BME280;20637;55.770;37.592;2022-09-27T00:37:03;99342.28;;;8.29;85.78
34374;BME280;20637;55.770;37.592;2022-09-27T00:39:28;99342.59;;;8.34;86.29
34374;BME280;20637;55.770;37.592;2022-09-27T00:41:54;99343.16;;;8.38;86.09
34374;BME280;20637;55.770;37.592;2022-09-27T00:47:14;99351.03;;;8.39;85.76
34374;BME280;20637;55.770;37.592;2022-09-27T00:55:05;99347.75;;;8.28;86.15
34374;BME280;20637;55.770;37.592;2022-09-27T00:57:31;99353.13;;;8.28;85.91
34374;BME280;20637;55.770;37.592;2022-09-27T01:00:09;99356.69;;;8.28;86.41
34374;BME280;20637;55.770;37.592;2022-09-27T01:02:37;99355.81;;;8.28;86.34
34374;BME280;20637;55.770;37.592;2022-09-27T01:05:05;99350.16;;;8.31;85.88
34374;BME280;20637;55.770;37.592;2022-09-27T01:07:33;99352.84;;;8.31;85.93
34374;BME280;20637;55.770;37.592;2022-09-27T01:09:59;99355.53;;;8.31;85.70
34374;BME280;20637;55.770;37.592;2022-09-27T01:18:42;99350.78;;;8.25;85.79
34374;BME280;20637;55.770;37.592;2022-09-27T01:21:41;99353.47;;;8.25;86.50
34374;BME280;20637;55.770;37.592;2022-09-27T01:27:28;99353.38;;;8.08;86.21
34374;BME280;20637;55.770;37.592;2022-09-27T01:43:43;99342.44;;;7.76;86.23
34374;BME280;20637;55.770;37.592;2022-09-27T01:46:33;99345.72;;;7.70;86.15
34374;BME280;20637;55.770;37.592;2022-09-27T01:49:31;99338.53;;;7.71;86.27
34374;BME280;20637;55.770;37.592;2022-09-27T01:52:03;99341.72;;;7.74;86.48
34374;BME280;20637;55.770;37.592;2022-09-27T01:54:40;99350.50;;;7.76;86.49
34374;BME280;20637;55.770;37.592;2022-09-27T01:57:38;99342.44;;;7.76;87.13
34374;BME280;20637;55.770;37.592;2022-09-27T02:00:10;99346.09;;;7.75;86.69
34374;BME280;20637;55.770;37.592;2022-09-27T02:02:52;99344.28;;;7.76;86.74
34374;BME280;20637;55.770;37.592;2022-09-27T02:05:21;99335.03;;;7.78;87.26
34374;BME280;20637;55.770;37.592;2022-09-27T02:07:57;99335.72;;;7.80;87.63
34374;BME280;20637;55.770;37.592;2022-09-27T02:10:33;99340.41;;;7.78;87.15
34374;BME280;20637;55.770;37.592;2022-09-27T02:15:49;99349.13;;;7.72;87.30
34374;BME280;20637;55.770;37.592;2022-09-27T02:21:13;99344.41;;;7.74;87.63
34374;BME280;20637;55.770;37.592;2022-09-27T02:23:47;99356.47;;;7.70;87.57
34374;BME280;20637;55.770;37.592;2022-09-27T02:26:25;99353.94;;;7.68;87.33
34374;BME280;20637;55.770;37.592;2022-09-27T02:29:23;99350.09;;;7.71;87.77
34374;BME280;20637;55.770;37.592;2022-09-27T02:31:53;99341.59;;;7.76;87.73
34374;BME280;20637;55.770;37.592;2022-09-27T02:34:26;99349.16;;;7.80;87.70
34374;BME280;20637;55.770;37.592;2022-09-27T02:36:54;99339.94;;;7.83;87.77
34374;BME280;20637;55.770;37.592;2022-09-27T02:39:20;99353.06;;;7.86;88.02
34374;BME280;20637;55.770;37.592;2022-09-27T02:41:52;99355.94;;;7.92;88.11
34374;BME280;20637;55.770;37.592;2022-09-27T02:44:23;99350.28;;;7.95;87.85
34374;BME280;20637;55.770;37.592;2022-09-27T02:47:10;99352.66;;;7.98;87.95
34374;BME280;20637;55.770;37.592;2022-09-27T02:55:25;99357.56;;;8.03;87.83
34374;BME280;20637;55.770;37.592;2022-09-27T03:01:26;99355.84;;;8.02;88.01
34374;BME280;20637;55.770;37.592;2022-09-27T03:06:40;99360.00;;;7.96;87.64
34374;BME280;20637;55.770;37.592;2022-09-27T03:09:24;99356.47;;;7.96;88.26
34374;BME280;20637;55.770;37.592;2022-09-27T03:11:53;99361.50;;;7.91;87.71
34374;BME280;20637;55.770;37.592;2022-09-27T03:14:19;99359.09;;;7.88;87.80
34374;BME280;20637;55.770;37.592;2022-09-27T03:17:07;99365.31;;;7.88;87.63
34374;BME280;20637;55.770;37.592;2022-09-27T03:20:02;99368.19;;;7.87;87.98
34374;BME280;20637;55.770;37.592;2022-09-27T03:22:47;99360.59;;;7.82;87.74
34374;BME280;20637;55.770;37.592;2022-09-27T03:25:13;99368.97;;;7.79;87.84
34374;BME280;20637;55.770;37.592;2022-09-27T03:27:39;99368.13;;;7.79;87.87
34374;BME280;20637;55.770;37.592;2022-09-27T03:30:05;99379.72;;;7.79;88.56
34374;BME280;20637;55.770;37.592;2022-09-27T03:32:32;99377.66;;;7.73;88.29
34374;BME280;20637;55.770;37.592;2022-09-27T03:35:16;99380.34;;;7.73;87.97
34374;BME280;20637;55.770;37.592;2022-09-27T03:37:42;99377.50;;;7.75;88.45
34374;BME280;20637;55.770;37.592;2022-09-27T03:40:08;99375.50;;;7.77;88.26
34374;BME280;20637;55.770;37.592;2022-09-27T03:42:37;99368.44;;;7.76;88.44
34374;BME280;20637;55.770;37.592;2022-09-27T03:45:06;99376.50;;;7.76;88.20
34374;BME280;20637;55.770;37.592;2022-09-27T03:47:32;99378.34;;;7.75;88.19
34374;BME280;20637;55.770;37.592;2022-09-27T03:49:57;99378.34;;;7.75;88.45
34374;BME280;20637;55.770;37.592;2022-09-27T03:52:23;99381.19;;;7.74;88.63
34374;BME280;20637;55.770;37.592;2022-09-27T03:54:49;99373.44;;;7.71;88.04
34374;BME280;20637;55.770;37.592;2022-09-27T03:57:14;99373.59;;;7.69;88.54
34374;BME280;20637;55.770;37.592;2022-09-27T03:59:40;99379.97;;;7.68;88.54
34374;BME280;20637;55.770;37.592;2022-09-27T04:02:39;99379.66;;;7.71;88.55
34374;BME280;20637;55.770;37.592;2022-09-27T04:05:29;99378.34;;;7.75;88.20
34374;BME280;20637;55.770;37.592;2022-09-27T04:08:07;99380.72;;;7.78;88.32
34374;BME280;20637;55.770;37.592;2022-09-27T04:10:35;99386.75;;;7.80;88.39
34374;BME280;20637;55.770;37.592;2022-09-27T04:13:01;99383.41;;;7.78;88.39
34374;BME280;20637;55.770;37.592;2022-09-27T04:15:32;99380.41;;;7.81;88.10
34374;BME280;20637;55.770;37.592;2022-09-27T04:18:21;99376.06;;;7.88;88.37
34374;BME280;20637;55.770;37.592;2022-09-27T04:21:06;99390.59;;;7.95;88.27
34374;BME280;20637;55.770;37.592;2022-09-27T04:23:36;99392.50;;;8.03;88.45
34374;BME280;20637;55.770;37.592;2022-09-27T04:26:02;99387.28;;;8.01;88.58
34374;BME280;20637;55.770;37.592;2022-09-27T04:28:57;99388.91;;;7.94;88.21
34374;BME280;20637;55.770;37.592;2022-09-27T04:31:23;99384.84;;;7.90;87.67
34374;BME280;20637;55.770;37.592;2022-09-27T04:34:04;99379.47;;;7.90;87.66
34374;BME280;20637;55.770;37.592;2022-09-27T04:36:32;99394.28;;;7.94;87.41
34374;BME280;20637;55.770;37.592;2022-09-27T04:39:06;99388.25;;;8.00;88.04
34374;BME280;20637;55.770;37.592;2022-09-27T04:41:35;99386.09;;;8.04;88.03
34374;BME280;20637;55.770;37.592;2022-09-27T04:44:01;99393.03;;;8.06;88.04
34374;BME280;20637;55.770;37.592;2022-09-27T04:46:28;99398.75;;;8.11;87.71
34374;BME280;20637;55.770;37.592;2022-09-27T04:49:00;99394.59;;;8.17;88.09
34374;BME280;20637;55.770;37.592;2022-09-27T04:51:28;99391.09;;;8.25;87.37
34374;BME280;20637;55.770;37.592;2022-09-27T04:53:57;99394.78;;;8.24;87.54
34374;BME280;20637;55.770;37.592;2022-09-27T04:56:27;99393.09;;;8.23;87.58
34374;BME280;20637;55.770;37.592;2022-09-27T04:58:53;99393.78;;;8.25;87.82
34374;BME280;20637;55.770;37.592;2022-09-27T05:01:19;99392.81;;;8.26;87.08
34374;BME280;20637;55.770;37.592;2022-09-27T05:04:14;99405.06;;;8.28;87.12
34374;BME280;20637;55.770;37.592;2022-09-27T05:06:43;99401.09;;;8.32;87.78
34374;BME280;20637;55.770;37.592;2022-09-27T05:09:17;99400.44;;;8.38;87.81
34374;BME280;20637;55.770;37.592;2022-09-27T05:11:48;99395.63;;;8.50;87.21
34374;BME280;20637;55.770;37.592;2022-09-27T05:14:16;99399.53;;;8.55;87.61
34374;BME280;20637;55.770;37.592;2022-09-27T05:16:55;99395.69;;;8.58;87.32
34374;BME280;20637;55.770;37.592;2022-09-27T05:19:34;99394.34;;;8.62;87.49
34374;BME280;20637;55.770;37.592;2022-09-27T05:22:02;99391.66;;;8.62;86.78
34374;BME280;20637;55.770;37.592;2022-09-27T05:24:28;99394.34;;;8.62;86.59
34374;BME280;20637;55.770;37.592;2022-09-27T05:26:56;99394.88;;;8.66;86.74
34374;BME280;20637;55.770;37.592;2022-09-27T05:29:22;99391.53;;;8.72;86.93
34374;BME280;20637;55.770;37.592;2022-09-27T05:32:03;99397.44;;;8.75;86.63
34374;BME280;20637;55.770;37.592;2022-09-27T05:34:29;99394.09;;;8.81;87.07
34374;BME280;20637;55.770;37.592;2022-09-27T05:36:57;99395.13;;;8.88;86.86
34374;BME280;20637;55.770;37.592;2022-09-27T05:39:24;99390.94;;;8.94;86.23
34374;BME280;20637;55.770;37.592;2022-09-27T05:41:49;99390.94;;;8.94;86.23
34374;BME280;20637;55.770;37.592;2022-09-27T05:44:16;99380.06;;;9.03;86.51
34374;BME280;20637;55.770;37.592;2022-09-27T05:46:50;99388.31;;;9.10;86.85
34374;BME280;20637;55.770;37.592;2022-09-27T05:49:16;99391.34;;;9.15;86.39
34374;BME280;20637;55.770;37.592;2022-09-27T05:51:42;99379.41;;;9.26;85.95
34374;BME280;20637;55.770;37.592;2022-09-27T05:54:09;99382.44;;;9.39;85.96
34374;BME280;20637;55.770;37.592;2022-09-27T05:56:35;99383.16;;;9.49;85.98
34374;BME280;20637;55.770;37.592;2022-09-27T05:59:14;99373.03;;;9.59;85.48
34374;BME280;20637;55.770;37.592;2022-09-27T06:02:12;99377.94;;;9.72;85.19
34374;BME280;20637;55.770;37.592;2022-09-27T06:05:00;99368.81;;;9.89;85.44
34374;BME280;20637;55.770;37.592;2022-09-27T06:07:46;99370.66;;;9.96;84.99
34374;BME280;20637;55.770;37.592;2022-09-27T06:10:22;99370.81;;;10.03;84.39
34374;BME280;20637;55.770;37.592;2022-09-27T06:12:49;99365.59;;;10.10;84.42
34374;BME280;20637;55.770;37.592;2022-09-27T06:15:37;99361.22;;;10.17;83.63
34374;BME280;20637;55.770;37.592;2022-09-27T06:18:05;99357.84;;;10.23;83.44
34374;BME280;20637;55.770;37.592;2022-09-27T06:20:33;99364.38;;;10.28;83.18
34374;BME280;20637;55.770;37.592;2022-09-27T06:23:14;99361.66;;;10.36;82.42
34374;BME280;20637;55.770;37.592;2022-09-27T06:25:41;99359.66;;;10.38;81.77
34374;BME280;20637;55.770;37.592;2022-09-27T06:28:21;99352.53;;;10.45;81.63
34374;BME280;20637;55.770;37.592;2022-09-27T06:30:52;99352.19;;;10.48;80.82
34374;BME280;20637;55.770;37.592;2022-09-27T06:33:36;99353.53;;;10.44;80.77
34374;BME280;20637;55.770;37.592;2022-09-27T06:36:06;99359.59;;;10.46;80.57
34374;BME280;20637;55.770;37.592;2022-09-27T06:38:34;99358.06;;;10.52;80.07
34374;BME280;20637;55.770;37.592;2022-09-27T06:41:26;99355.22;;;10.54;80.03
34374;BME280;20637;55.770;37.592;2022-09-27T06:44:10;99350.09;;;10.59;79.55
34374;BME280;20637;55.770;37.592;2022-09-27T06:46:54;99354.66;;;10.58;79.32
34374;BME280;20637;55.770;37.592;2022-09-27T06:49:41;99344.41;;;10.54;79.09
34374;BME280;20637;55.770;37.592;2022-09-27T06:52:07;99345.94;;;10.48;78.71
34374;BME280;20637;55.770;37.592;2022-09-27T06:54:33;99348.16;;;10.44;78.75
34374;BME280;20637;55.770;37.592;2022-09-27T06:56:58;99338.19;;;10.45;79.18
34374;BME280;20637;55.770;37.592;2022-09-27T06:59:24;99341.72;;;10.54;78.97
34374;BME280;20637;55.770;37.592;2022-09-27T07:02:28;99337.28;;;10.61;79.24
34374;BME280;20637;55.770;37.592;2022-09-27T07:05:10;99350.28;;;10.65;78.76
34374;BME280;20637;55.770;37.592;2022-09-27T07:07:56;99350.28;;;10.65;78.27
34374;BME280;20637;55.770;37.592;2022-09-27T07:10:28;99352.75;;;10.75;78.21
34374;BME280;20637;55.770;37.592;2022-09-27T07:12:55;99354.84;;;10.95;78.03
34374;BME280;20637;55.770;37.592;2022-09-27T07:15:23;99358.63;;;11.09;78.06
34374;BME280;20637;55.770;37.592;2022-09-27T07:17:58;99360.59;;;11.23;77.45
34374;BME280;20637;55.770;37.592;2022-09-27T07:20:26;99353.72;;;11.35;77.27
34374;BME280;20637;55.770;37.592;2022-09-27T07:22:52;99360.13;;;11.42;76.29
34374;BME280;20637;55.770;37.592;2022-09-27T07:25:18;99365.31;;;11.44;75.57
34374;BME280;20637;55.770;37.592;2022-09-27T07:27:44;99365.16;;;11.45;75.23
34374;BME280;20637;55.770;37.592;2022-09-27T07:30:10;99359.53;;;11.47;75.56
34374;BME280;20637;55.770;37.592;2022-09-27T07:32:37;99362.75;;;11.51;75.32
34374;BME280;20637;55.770;37.592;2022-09-27T07:35:08;99354.38;;;11.60;74.84
34374;BME280;20637;55.770;37.592;2022-09-27T07:37:35;99350.09;;;11.74;74.33
34374;BME280;20637;55.770;37.592;2022-09-27T07:40:04;99351.97;;;11.88;73.47
34374;BME280;20637;55.770;37.592;2022-09-27T07:42:36;99348.06;;;12.05;72.89
34374;BME280;20637;55.770;37.592;2022-09-27T07:45:07;99348.38;;;12.25;72.73
34374;BME280;20637;55.770;37.592;2022-09-27T07:47:56;99346.59;;;12.32;70.99
34374;BME280;20637;55.770;37.592;2022-09-27T07:50:39;99344.56;;;12.19;71.17
34374;BME280;20637;55.770;37.592;2022-09-27T07:53:25;99351.09;;;12.10;70.45
34374;BME280;20637;55.770;37.592;2022-09-27T07:56:16;99349.19;;;11.96;70.29
34374;BME280;20637;55.770;37.592;2022-09-27T07:58:42;99346.19;;;11.91;70.63
34374;BME280;20637;55.770;37.592;2022-09-27T08:01:08;99346.13;;;11.99;69.82
34374;BME280;20637;55.770;37.592;2022-09-27T08:03:34;99340.44;;;12.09;68.92
34374;BME280;20637;55.770;37.592;2022-09-27T08:06:01;99352.31;;;12.22;68.39
34374;BME280;20637;55.770;37.592;2022-09-27T08:08:29;99343.56;;;12.35;68.28
34374;BME280;20637;55.770;37.592;2022-09-27T08:10:55;99338.59;;;12.38;67.84
34374;BME280;20637;55.770;37.592;2022-09-27T08:13:22;99343.00;;;12.39;67.47
34374;BME280;20637;55.770;37.592;2022-09-27T08:15:50;99342.16;;;12.39;67.64
34374;BME280;20637;55.770;37.592;2022-09-27T08:18:17;99343.81;;;12.40;66.85
34374;BME280;20637;55.770;37.592;2022-09-27T08:20:55;99347.56;;;12.39;67.09
34374;BME280;20637;55.770;37.592;2022-09-27T08:23:27;99344.94;;;12.31;67.53
34374;BME280;20637;55.770;37.592;2022-09-27T08:26:23;99346.44;;;12.33;68.02
34374;BME280;20637;55.770;37.592;2022-09-27T08:28:52;99339.34;;;12.47;67.28
34374;BME280;20637;55.770;37.592;2022-09-27T08:31:21;99330.28;;;12.55;67.45
34374;BME280;20637;55.770;37.592;2022-09-27T08:33:52;99330.28;;;12.55;66.74
34374;BME280;20637;55.770;37.592;2022-09-27T08:36:19;99326.06;;;12.67;66.30
34374;BME280;20637;55.770;37.592;2022-09-27T08:38:49;99319.78;;;12.81;65.29
34374;BME280;20637;55.770;37.592;2022-09-27T08:47:27;99329.25;;;12.70;64.14
34374;BME280;20637;55.770;37.592;2022-09-27T08:50:20;99336.03;;;12.81;64.09
34374;BME280;20637;55.770;37.592;2022-09-27T08:53:26;99336.34;;;13.07;64.84
34374;BME280;20637;55.770;37.592;2022-09-27T08:55:47;99332.22;;;13.47;64.15
34374;BME280;20637;55.770;37.592;2022-09-27T08:58:40;99332.84;;;13.70;63.11
34374;BME280;20637;55.770;37.592;2022-09-27T09:01:17;99332.31;;;13.81;61.83
34374;BME280;20637;55.770;37.592;2022-09-27T09:03:58;99326.50;;;13.63;61.88
34374;BME280;20637;55.770;37.592;2022-09-27T09:12:20;99330.09;;;13.43;62.51
34374;BME280;20637;55.770;37.592;2022-09-27T09:21:19;99336.00;;;13.10;62.09
34374;BME280;20637;55.770;37.592;2022-09-27T09:27:24;99335.22;;;12.66;61.88
34374;BME280;20637;55.770;37.592;2022-09-27T09:30:17;99336.53;;;12.70;62.46
34374;BME280;20637;55.770;37.592;2022-09-27T09:33:22;99333.44;;;12.73;61.81
34374;BME280;20637;55.770;37.592;2022-09-27T09:36:01;99326.91;;;12.67;62.56
34374;BME280;20637;55.770;37.592;2022-09-27T09:38:38;99327.94;;;12.66;62.52
34374;BME280;20637;55.770;37.592;2022-09-27T09:41:36;99332.53;;;12.66;62.33
34374;BME280;20637;55.770;37.592;2022-09-27T09:44:21;99321.75;;;12.72;62.40
34374;BME280;20637;55.770;37.592;2022-09-27T09:46:52;99322.16;;;12.69;62.41
34374;BME280;20637;55.770;37.592;2022-09-27T09:49:21;99322.25;;;12.61;62.41
34374;BME280;20637;55.770;37.592;2022-09-27T09:51:55;99324.38;;;12.51;61.98
34374;BME280;20637;55.770;37.592;2022-09-27T09:54:49;99327.00;;;12.45;62.48
34374;BME280;20637;55.770;37.592;2022-09-27T09:59:58;99329.03;;;12.72;62.76
34374;BME280;20637;55.770;37.592;2022-09-27T10:02:31;99309.09;;;12.94;61.52
34374;BME280;20637;55.770;37.592;2022-09-27T10:05:04;99314.22;;;13.04;61.07
34374;BME280;20637;55.770;37.592;2022-09-27T10:07:33;99316.19;;;13.10;61.26
34374;BME280;20637;55.770;37.592;2022-09-27T10:10:01;99317.94;;;13.03;60.37
34374;BME280;20637;55.770;37.592;2022-09-27T10:12:41;99315.19;;;12.96;60.58
34374;BME280;20637;55.770;37.592;2022-09-27T10:15:20;99310.78;;;12.95;60.78
34374;BME280;20637;55.770;37.592;2022-09-27T10:17:51;99315.81;;;12.98;60.21
34374;BME280;20637;55.770;37.592;2022-09-27T10:22:53;99314.59;;;13.01;60.45
34374;BME280;20637;55.770;37.592;2022-09-27T10:25:59;99319.38;;;12.99;61.18
34374;BME280;20637;55.770;37.592;2022-09-27T10:28:41;99311.47;;;12.82;61.22
34374;BME280;20637;55.770;37.592;2022-09-27T10:31:16;99323.06;;;12.76;60.63
34374;BME280;20637;55.770;37.592;2022-09-27T10:34:02;99310.09;;;12.72;61.23
34374;BME280;20637;55.770;37.592;2022-09-27T10:36:35;99311.22;;;12.77;61.55
34374;BME280;20637;55.770;37.592;2022-09-27T10:39:05;99303.81;;;12.71;61.38
34374;BME280;20637;55.770;37.592;2022-09-27T10:41:40;99313.81;;;12.71;61.05
34374;BME280;20637;55.770;37.592;2022-09-27T10:44:26;99305.06;;;12.69;61.04
34374;BME280;20637;55.770;37.592;2022-09-27T10:47:25;99297.66;;;12.63;60.90
34374;BME280;20637;55.770;37.592;2022-09-27T10:50:04;99286.72;;;12.71;61.37
34374;BME280;20637;55.770;37.592;2022-09-27T10:52:48;99294.25;;;12.90;60.65
34374;BME280;20637;55.770;37.592;2022-09-27T10:55:24;99295.03;;;13.20;60.20
34374;BME280;20637;55.770;37.592;2022-09-27T10:57:54;99300.66;;;13.40;59.10
34374;BME280;20637;55.770;37.592;2022-09-27T11:00:23;99291.22;;;13.57;59.10
34374;BME280;20637;55.770;37.592;2022-09-27T11:02:55;99291.50;;;13.68;58.03
34374;BME280;20637;55.770;37.592;2022-09-27T11:07:59;99289.84;;;13.95;57.86
34374;BME280;20637;55.770;37.592;2022-09-27T11:11:23;99282.91;;;13.86;57.29
34374;BME280;20637;55.770;37.592;2022-09-27T11:14:01;99280.81;;;13.88;58.07
34374;BME280;20637;55.770;37.592;2022-09-27T11:49:08;99267.31;;;13.03;57.42
34374;BME280;20637;55.770;37.592;2022-09-27T11:51:57;99259.47;;;13.08;58.05
34374;BME280;20637;55.770;37.592;2022-09-27T11:57:08;99259.97;;;12.97;58.62
34374;BME280;20637;55.770;37.592;2022-09-27T12:00:02;99265.13;;;12.92;58.28
34374;BME280;20637;55.770;37.592;2022-09-27T12:10:54;99260.41;;;13.01;58.08
34374;BME280;20637;55.770;37.592;2022-09-27T12:13:37;99256.38;;;13.11;57.79
34374;BME280;20637;55.770;37.592;2022-09-27T12:16:05;99250.00;;;13.19;57.53
34374;BME280;20637;55.770;37.592;2022-09-27T12:18:37;99248.75;;;13.21;57.35
34374;BME280;20637;55.770;37.592;2022-09-27T12:21:11;99242.66;;;13.13;56.93
34374;BME280;20637;55.770;37.592;2022-09-27T12:23:49;99242.84;;;13.11;57.20
34374;BME280;20637;55.770;37.592;2022-09-27T12:26:40;99238.03;;;13.13;56.50
34374;BME280;20637;55.770;37.592;2022-09-27T12:29:19;99232.25;;;13.16;56.63
34374;BME280;20637;55.770;37.592;2022-09-27T12:32:11;99223.53;;;13.21;56.96
34374;BME280;20637;55.770;37.592;2022-09-27T12:34:49;99227.28;;;13.20;56.60
34374;BME280;20637;55.770;37.592;2022-09-27T12:37:50;99220.75;;;13.14;55.44
34374;BME280;20637;55.770;37.592;2022-09-27T12:40:27;99217.13;;;13.07;56.39
34374;BME280;20637;55.770;37.592;2022-09-27T12:43:11;99222.19;;;13.10;56.70
34374;BME280;20637;55.770;37.592;2022-09-27T12:48:39;99215.34;;;13.14;55.83
34374;BME280;20637;55.770;37.592;2022-09-27T12:51:16;99211.41;;;13.17;55.42
34374;BME280;20637;55.770;37.592;2022-09-27T13:12:47;99207.34;;;13.27;55.21
34374;BME280;20637;55.770;37.592;2022-09-27T13:15:27;99211.69;;;13.28;54.96
34374;BME280;20637;55.770;37.592;2022-09-27T13:17:56;99210.06;;;13.27;55.12
34374;BME280;20637;55.770;37.592;2022-09-27T13:20:41;99207.97;;;13.29;55.84
34374;BME280;20637;55.770;37.592;2022-09-27T13:26:01;99200.06;;;13.28;55.65
34374;BME280;20637;55.770;37.592;2022-09-27T13:31:14;99195.22;;;13.23;55.49
34374;BME280;20637;55.770;37.592;2022-09-27T13:33:48;99194.38;;;13.23;55.79
34374;BME280;20637;55.770;37.592;2022-09-27T13:39:02;99198.31;;;13.20;55.37
34374;BME280;20637;55.770;37.592;2022-09-27T13:49:37;99192.25;;;13.18;55.80
34374;BME280;20637;55.770;37.592;2022-09-27T13:58:47;99193.88;;;13.13;56.52
34374;BME280;20637;55.770;37.592;2022-09-27T14:01:41;99196.28;;;13.08;56.32
34374;BME280;20637;55.770;37.592;2022-09-27T14:06:45;99174.56;;;13.01;56.80
34374;BME280;20637;55.770;37.592;2022-09-27T14:11:49;99179.31;;;12.99;57.21
34374;BME280;20637;55.770;37.592;2022-09-27T14:14:21;99192.25;;;12.97;57.15
34374;BME280;20637;55.770;37.592;2022-09-27T14:16:52;99177.84;;;12.97;57.34
34374;BME280;20637;55.770;37.592;2022-09-27T14:19:21;99187.00;;;12.96;58.07
34374;BME280;20637;55.770;37.592;2022-09-27T14:21:47;99186.63;;;12.99;58.29
34374;BME280;20637;55.770;37.592;2022-09-27T14:32:26;99173.59;;;13.09;58.89
34374;BME280;20637;55.770;37.592;2022-09-27T14:37:28;99175.38;;;13.02;58.61
34374;BME280;20637;55.770;37.592;2022-09-27T14:40:05;99184.94;;;12.98;58.87
34374;BME280;20637;55.770;37.592;2022-09-27T14:42:35;99181.41;;;12.97;59.29
34374;BME280;20637;55.770;37.592;2022-09-27T14:45:20;99180.16;;;13.00;59.41
34374;BME280;20637;55.770;37.592;2022-09-27T14:47:48;99172.22;;;12.98;59.16
34374;BME280;20637;55.770;37.592;2022-09-27T14:50:26;99184.56;;;13.01;59.48
34374;BME280;20637;55.770;37.592;2022-09-27T14:52:55;99186.63;;;12.99;59.61
34374;BME280;20637;55.770;37.592;2022-09-27T14:55:31;99174.47;;;12.95;59.48
34374;BME280;20637;55.770;37.592;2022-09-27T14:58:00;99172.16;;;12.92;60.20
34374;BME280;20637;55.770;37.592;2022-09-27T15:00:31;99175.28;;;12.88;59.89
34374;BME280;20637;55.770;37.592;2022-09-27T15:03:04;99177.53;;;12.85;60.34
34374;BME280;20637;55.770;37.592;2022-09-27T15:05:33;99172.13;;;12.85;60.18
34374;BME280;20637;55.770;37.592;2022-09-27T15:08:04;99167.91;;;12.82;60.87
34374;BME280;20637;55.770;37.592;2022-09-27T15:10:33;99165.19;;;12.82;60.80
34374;BME280;20637;55.770;37.592;2022-09-27T15:13:01;99157.88;;;12.76;60.58
34374;BME280;20637;55.770;37.592;2022-09-27T15:15:32;99163.47;;;12.75;60.95
34374;BME280;20637;55.770;37.592;2022-09-27T15:17:58;99163.47;;;12.75;61.12
34374;BME280;20637;55.770;37.592;2022-09-27T15:20:34;99164.97;;;12.77;60.87
34374;BME280;20637;55.770;37.592;2022-09-27T15:23:04;99158.88;;;12.75;61.13
34374;BME280;20637;55.770;37.592;2022-09-27T15:25:41;99162.88;;;12.79;61.44
34374;BME280;20637;55.770;37.592;2022-09-27T15:28:15;99163.28;;;12.76;61.50
34374;BME280;20637;55.770;37.592;2022-09-27T15:30:46;99157.88;;;12.76;61.31
34374;BME280;20637;55.770;37.592;2022-09-27T15:33:20;99155.34;;;12.75;61.69
34374;BME280;20637;55.770;37.592;2022-09-27T15:35:49;99153.41;;;12.69;61.56
34374;BME280;20637;55.770;37.592;2022-09-27T15:38:25;99161.09;;;12.65;61.50
34374;BME280;20637;55.770;37.592;2022-09-27T15:45:49;99141.94;;;12.46;62.62
34374;BME280;20637;55.770;37.592;2022-09-27T15:48:20;99139.78;;;12.41;62.79
34374;BME280;20637;55.770;37.592;2022-09-27T15:50:47;99130.00;;;12.40;63.00
34374;BME280;20637;55.770;37.592;2022-09-27T15:53:49;99131.09;;;12.46;62.86
34374;BME280;20637;55.770;37.592;2022-09-27T15:56:14;99128.22;;;12.47;63.05
34374;BME280;20637;55.770;37.592;2022-09-27T15:58:41;99134.00;;;12.44;63.34
34374;BME280;20637;55.770;37.592;2022-09-27T16:01:15;99140.63;;;12.41;63.05
34374;BME280;20637;55.770;37.592;2022-09-27T16:03:41;99137.47;;;12.38;62.65
34374;BME280;20637;55.770;37.592;2022-09-27T16:06:10;99125.34;;;12.34;62.60
34374;BME280;20637;55.770;37.592;2022-09-27T16:08:37;99140.47;;;12.28;62.76
34374;BME280;20637;55.770;37.592;2022-09-27T16:11:03;99135.91;;;12.29;63.07
34374;BME280;20637;55.770;37.592;2022-09-27T16:13:30;99125.09;;;12.29;63.07
34374;BME280;20637;55.770;37.592;2022-09-27T16:15:55;99120.06;;;12.26;63.35
34374;BME280;20637;55.770;37.592;2022-09-27T16:18:22;99120.91;;;12.26;63.45
34374;BME280;20637;55.770;37.592;2022-09-27T16:20:47;99114.25;;;12.29;63.92
34374;BME280;20637;55.770;37.592;2022-09-27T16:23:13;99115.31;;;12.28;63.69
34374;BME280;20637;55.770;37.592;2022-09-27T16:25:38;99110.06;;;12.26;63.69
34374;BME280;20637;55.770;37.592;2022-09-27T16:28:04;99112.13;;;12.24;63.51
34374;BME280;20637;55.770;37.592;2022-09-27T16:30:31;99111.50;;;12.22;63.95
34374;BME280;20637;55.770;37.592;2022-09-27T16:32:57;99116.91;;;12.22;64.48
34374;BME280;20637;55.770;37.592;2022-09-27T16:35:24;99109.81;;;12.21;63.82
34374;BME280;20637;55.770;37.592;2022-09-27T16:37:50;99110.00;;;12.20;64.12